Time;durP1;ratioP1;P1;durP2;ratioP2;P2;SDS_P1;SDS_P2;PMS_P1;PMS_P2;Temp;Humidity;BMP_temperature;BMP_pressure;BME280_temperature;BME280_humidity;BME280_pressure;Samples;Min_cycle;Max_cycle;Signal;HPM_P1;HPM_P2
2022/01/11 00:01:48;;;;;;;21.12;9.50;;;;;;;7.73;74.25;100813.92;1847496;78;21500;-60
2022/01/11 00:04:18;;;;;;;16.85;8.48;;;;;;;7.72;74.38;100815.27;1847473;78;21097;-60
2022/01/11 00:06:49;;;;;;;16.87;8.60;;;;;;;7.76;74.42;100812.11;1847701;77;21046;-61
2022/01/11 00:09:33;;;;;;;21.02;8.95;;;;;;;7.77;74.34;100819.09;1847580;78;21211;-60
2022/01/11 00:11:50;;;;;;;22.75;9.38;;;;;;;7.69;74.45;100814.02;1845239;77;21045;-60
2022/01/11 00:14:19;;;;;;;21.93;9.58;;;;;;;7.72;74.37;100813.95;1847634;77;21559;-60
2022/01/11 00:16:48;;;;;;;13.10;7.42;;;;;;;7.73;74.28;100810.45;1859788;76;21528;-59
2022/01/11 00:19:16;;;;;;;18.05;8.53;;;;;;;7.74;74.24;100812.15;1866007;77;21092;-60
2022/01/11 00:21:47;;;;;;;13.75;7.17;;;;;;;7.74;74.12;100813.00;1866006;77;21529;-60
2022/01/11 00:24:29;;;;;;;13.13;7.30;;;;;;;7.74;74.13;100813.00;1866178;77;21142;-60
2022/01/11 00:27:01;;;;;;;13.53;7.15;;;;;;;7.69;74.21;100812.28;1866308;77;21077;-60
2022/01/11 00:29:31;;;;;;;16.73;7.65;;;;;;;7.65;74.28;100818.48;1864541;77;21480;-61
2022/01/11 00:32:07;;;;;;;15.08;7.45;;;;;;;7.64;74.34;100814.16;1867424;77;21192;-60
2022/01/11 00:34:46;;;;;;;18.00;8.23;;;;;;;7.65;74.39;100817.17;1862669;77;21053;-61
2022/01/11 00:37:03;;;;;;;16.73;7.85;;;;;;;7.63;74.47;100808.49;1863344;77;21049;-61
2022/01/11 00:39:32;;;;;;;18.62;8.63;;;;;;;7.64;74.44;100815.47;1869473;77;21053;-60
2022/01/11 00:42:01;;;;;;;13.95;7.80;;;;;;;7.61;74.51;100804.20;1852190;77;21042;-60
2022/01/11 00:44:30;;;;;;;13.25;7.55;;;;;;;7.62;74.52;100804.17;1828855;78;21109;-60
2022/01/11 00:47:00;;;;;;;19.40;8.15;;;;;;;7.65;74.47;100793.58;1828875;78;21192;-60
2022/01/11 00:49:28;;;;;;;18.25;7.95;;;;;;;7.69;74.48;100795.25;1828738;78;21098;-60
2022/01/11 00:51:57;;;;;;;18.92;8.73;;;;;;;7.70;74.55;100794.33;1831390;77;21054;-59
2022/01/11 00:54:26;;;;;;;16.15;8.75;;;;;;;7.74;74.61;100793.34;1828763;78;21451;-60
2022/01/11 00:56:54;;;;;;;21.75;9.18;;;;;;;7.77;74.59;100789.80;1828888;78;21454;-60
2022/01/11 00:59:23;;;;;;;18.17;9.65;;;;;;;7.80;74.59;100788.84;1828859;78;21055;-59
2022/01/11 01:01:52;;;;;;;24.37;11.48;;;;;;;7.81;74.61;100784.02;1828791;78;21000;-58
2022/01/11 01:04:21;;;;;;;27.67;12.63;;;;;;;7.83;74.62;100789.63;1831208;77;21051;-59
2022/01/11 01:06:49;;;;;;;23.80;10.32;;;;;;;7.83;74.64;100786.16;1828764;78;21497;-59
2022/01/11 01:09:18;;;;;;;20.35;9.65;;;;;;;7.83;74.53;100795.33;1828648;78;21051;-60
2022/01/11 01:11:48;;;;;;;22.40;9.33;;;;;;;7.81;74.53;100791.89;1828764;78;21054;-59
2022/01/11 01:14:18;;;;;;;27.07;12.03;;;;;;;7.79;74.51;100783.21;1831240;77;21541;-59
2022/01/11 01:16:48;;;;;;;61.50;22.73;;;;;;;7.76;74.54;100789.37;1828435;78;21111;-59
2022/01/11 01:19:30;;;;;;;70.45;24.60;;;;;;;7.72;74.53;100788.59;1827743;78;21071;-59
2022/01/11 01:22:00;;;;;;;42.50;15.90;;;;;;;7.65;74.67;100797.52;1827876;78;21035;-59
2022/01/11 01:24:28;;;;;;;36.48;14.40;;;;;;;7.62;74.72;100793.69;1830366;77;21446;-59
2022/01/11 01:26:57;;;;;;;27.75;11.68;;;;;;;7.61;74.66;100801.12;1827860;78;21135;-60
2022/01/11 01:29:26;;;;;;;18.85;8.75;;;;;;;7.58;74.64;100809.09;1827868;78;21105;-60
2022/01/11 01:31:55;;;;;;;17.80;8.68;;;;;;;7.56;74.71;100804.77;1827922;78;21043;-60
2022/01/11 01:34:24;;;;;;;17.57;10.40;;;;;;;7.55;74.73;100805.22;1830265;77;21528;-60
2022/01/11 01:36:53;;;;;;;22.00;9.78;;;;;;;7.56;74.71;100802.99;1827908;78;21589;-61
2022/01/11 01:39:22;;;;;;;16.35;9.08;;;;;;;7.56;74.66;100797.75;1827866;78;21431;-61
2022/01/11 01:41:51;;;;;;;17.77;10.15;;;;;;;7.58;74.65;100798.60;1827889;78;21426;-60
2022/01/11 01:44:20;;;;;;;18.23;8.95;;;;;;;7.57;74.59;100803.42;1827869;78;21054;-60
2022/01/11 01:46:49;;;;;;;17.55;9.00;;;;;;;7.56;74.76;100800.83;1830493;77;21048;-61
2022/01/11 01:49:20;;;;;;;19.07;9.50;;;;;;;7.54;74.94;100796.94;1828076;78;21466;-60
2022/01/11 01:51:48;;;;;;;25.05;10.90;;;;;;;7.56;75.08;100795.13;1827938;78;21130;-60
2022/01/11 01:54:21;;;;;;;23.98;10.50;;;;;;;7.57;75.07;100796.02;1828006;78;21111;-60
2022/01/11 01:56:51;;;;;;;21.65;10.03;;;;;;;7.59;75.08;100791.59;1852407;77;21074;-60
2022/01/11 01:59:20;;;;;;;28.92;11.55;;;;;;;7.59;75.05;100792.44;1865294;77;21058;-60
2022/01/11 02:01:50;;;;;;;22.80;9.85;;;;;;;7.60;75.00;100788.94;1865362;77;21461;-59
2022/01/11 02:04:20;;;;;;;21.20;10.00;;;;;;;7.61;74.93;100788.02;1833545;77;21419;-60
2022/01/11 02:06:49;;;;;;;25.17;10.88;;;;;;;7.61;74.91;100781.47;1827949;78;21094;-58
2022/01/11 02:09:18;;;;;;;27.50;9.73;;;;;;;7.60;75.02;100783.70;1827909;78;21063;-60
2022/01/11 02:11:48;;;;;;;18.62;9.40;;;;;;;7.61;75.22;100785.40;1827842;78;21481;-59
2022/01/11 02:14:17;;;;;;;22.45;10.30;;;;;;;7.61;75.34;100790.64;1830054;77;21034;-58
2022/01/11 02:16:46;;;;;;;20.50;9.80;;;;;;;7.61;75.44;100781.47;1827826;78;21507;-58
2022/01/11 02:19:16;;;;;;;25.10;11.03;;;;;;;7.60;75.42;100786.31;1828072;78;21150;-58
2022/01/11 02:21:45;;;;;;;24.50;10.65;;;;;;;7.60;75.43;100788.94;1827871;78;21146;-58
2022/01/11 02:24:15;;;;;;;22.22;10.15;;;;;;;7.63;75.37;100788.84;1827680;78;21071;-59
2022/01/11 02:26:43;;;;;;;19.82;10.93;;;;;;;7.64;75.23;100785.33;1827823;78;21094;-59
2022/01/11 02:29:13;;;;;;;27.95;11.78;;;;;;;7.65;75.10;100788.34;1830386;77;21051;-60
2022/01/11 02:31:43;;;;;;;24.10;10.70;;;;;;;7.60;75.14;100781.08;1827882;78;21063;-60
2022/01/11 02:34:13;;;;;;;24.20;10.72;;;;;;;7.57;75.10;100783.77;1827998;78;21558;-60
2022/01/11 02:36:47;;;;;;;21.68;10.48;;;;;;;7.53;75.28;100787.38;1859957;77;21094;-60
2022/01/11 02:39:19;;;;;;;20.90;10.25;;;;;;;7.50;75.49;100787.44;1865195;77;21102;-60
2022/01/11 02:41:52;;;;;;;19.45;9.73;;;;;;;7.50;75.40;100790.06;1865402;77;21081;-59
2022/01/11 02:44:24;;;;;;;17.53;9.50;;;;;;;7.50;75.33;100779.58;1865114;77;21509;-59
2022/01/11 02:46:53;;;;;;;18.02;9.33;;;;;;;7.51;75.29;100794.41;1862792;77;21037;-60
2022/01/11 02:49:24;;;;;;;21.93;10.13;;;;;;;7.51;75.34;100799.20;1865308;77;21128;-61
2022/01/11 02:51:54;;;;;;;17.45;9.40;;;;;;;7.52;75.37;100797.42;1865079;77;21121;-60
2022/01/11 02:54:24;;;;;;;24.70;9.90;;;;;;;7.50;75.36;100800.08;1865454;77;21050;-61
2022/01/11 02:56:55;;;;;;;24.60;10.88;;;;;;;7.48;75.33;100804.96;1864909;77;21520;-60
2022/01/11 02:59:23;;;;;;;21.68;9.83;;;;;;;7.44;75.39;100808.56;1865364;77;21018;-60
2022/01/11 03:01:52;;;;;;;26.93;12.98;;;;;;;7.37;75.39;100806.53;1828454;77;21011;-59
2022/01/11 03:04:21;;;;;;;23.95;14.20;;;;;;;7.28;75.47;100812.00;1827979;78;21094;-59
2022/01/11 03:06:49;;;;;;;20.92;14.53;;;;;;;7.20;75.52;100808.26;1832853;77;21118;-59
2022/01/11 03:09:19;;;;;;;22.60;14.70;;;;;;;7.13;75.53;100806.68;1865342;77;21569;-60
2022/01/11 03:11:49;;;;;;;24.32;12.47;;;;;;;7.03;75.66;100808.66;1865384;77;21054;-59
2022/01/11 03:14:17;;;;;;;18.77;9.75;;;;;;;6.93;75.80;100802.79;1865429;77;21519;-60
2022/01/11 03:16:46;;;;;;;18.95;9.63;;;;;;;6.86;75.94;100807.75;1865339;77;21038;-59
2022/01/11 03:19:15;;;;;;;19.70;8.60;;;;;;;6.80;76.04;100809.17;1854752;77;21091;-60
2022/01/11 03:21:43;;;;;;;22.45;8.90;;;;;;;6.76;76.07;100807.52;1851303;77;21039;-60
2022/01/11 03:24:14;;;;;;;14.58;8.25;;;;;;;6.74;76.11;100804.09;1851281;77;21090;-59
2022/01/11 03:26:43;;;;;;;18.42;9.08;;;;;;;6.70;76.19;100810.28;1828308;77;21128;-61
2022/01/11 03:29:12;;;;;;;21.05;10.60;;;;;;;6.67;76.29;100814.27;1814873;79;21187;-61
2022/01/11 03:31:41;;;;;;;20.80;10.85;;;;;;;6.67;76.23;100815.12;1786192;79;21157;-59
2022/01/11 03:34:17;;;;;;;19.05;11.10;;;;;;;6.65;76.21;100819.98;1851426;77;21569;-59
2022/01/11 03:36:40;;;;;;;23.98;11.12;;;;;;;6.64;76.24;100814.33;1850564;77;21061;-60
2022/01/11 03:39:09;;;;;;;26.33;10.95;;;;;;;6.62;76.20;100814.38;1844318;77;21057;-63
2022/01/11 03:41:38;;;;;;;27.00;13.35;;;;;;;6.60;76.18;100817.91;1820652;78;21176;-62
2022/01/11 03:44:07;;;;;;;25.90;15.23;;;;;;;6.55;76.25;100813.64;1820695;77;21539;-61
2022/01/11 03:46:36;;;;;;;27.05;12.40;;;;;;;6.52;76.31;100821.55;1820808;79;21101;-62
2022/01/11 03:49:04;;;;;;;20.80;10.08;;;;;;;6.49;76.39;100822.94;1822322;77;21119;-61
2022/01/11 03:51:37;;;;;;;20.80;9.90;;;;;;;6.45;76.43;100819.95;1851388;76;21104;-62
2022/01/11 03:54:13;;;;;;;19.45;9.23;;;;;;;6.40;76.55;100833.59;1851230;77;21069;-61
2022/01/11 03:56:41;;;;;;;14.28;8.70;;;;;;;6.34;76.72;100830.66;1851619;77;21081;-61
2022/01/11 03:59:11;;;;;;;16.70;8.98;;;;;;;6.30;76.83;100834.66;1849270;77;21176;-61
2022/01/11 04:01:40;;;;;;;17.45;9.05;;;;;;;6.29;76.90;100844.27;1835213;77;21025;-60
2022/01/11 04:04:10;;;;;;;15.53;7.85;;;;;;;6.29;76.88;100838.14;1849895;76;21131;-59
2022/01/11 04:06:40;;;;;;;21.12;9.35;;;;;;;6.31;76.93;100842.92;1851293;77;21120;-60
2022/01/11 04:09:11;;;;;;;18.70;9.58;;;;;;;6.33;76.90;100845.06;1842089;77;21088;-58
2022/01/11 04:11:40;;;;;;;24.63;12.10;;;;;;;6.32;76.84;100846.80;1819699;79;21148;-59
2022/01/11 04:14:09;;;;;;;18.10;10.35;;;;;;;6.29;76.89;100848.61;1821278;77;21109;-57
2022/01/11 04:16:37;;;;;;;18.12;10.05;;;;;;;6.32;76.77;100851.17;1851399;77;21045;-58
2022/01/11 04:19:07;;;;;;;22.27;10.63;;;;;;;6.33;76.71;100852.91;1865762;76;21544;-58
2022/01/11 04:21:35;;;;;;;25.02;10.10;;;;;;;6.31;76.72;100854.70;1889569;76;21061;-58
2022/01/11 04:24:04;;;;;;;20.27;10.32;;;;;;;6.30;76.63;100846.42;1889603;76;21076;-61
2022/01/11 04:26:33;;;;;;;23.70;10.13;;;;;;;6.29;76.62;100852.53;1894907;75;21017;-57
2022/01/11 04:29:04;;;;;;;22.93;11.00;;;;;;;6.25;76.69;100853.03;1921908;74;21117;-58
2022/01/11 04:31:34;;;;;;;21.93;10.58;;;;;;;6.21;76.81;100857.05;1922209;74;21498;-59
2022/01/11 04:34:03;;;;;;;21.75;10.35;;;;;;;6.14;77.00;100853.27;1918038;74;21038;-59
2022/01/11 04:36:33;;;;;;;24.92;10.03;;;;;;;6.08;77.12;100845.52;1925234;74;21030;-59
2022/01/11 04:39:22;;;;;;;19.92;9.30;;;;;;;6.09;77.08;100857.71;1910939;74;21003;-58
2022/01/11 04:41:52;;;;;;;27.85;10.85;;;;;;;6.10;77.03;100854.19;1812128;78;21046;-56
2022/01/11 04:44:21;;;;;;;25.95;10.95;;;;;;;6.09;76.92;100855.09;1824157;78;21489;-58
2022/01/11 04:46:50;;;;;;;23.45;10.75;;;;;;;6.09;76.80;100860.33;1811812;78;21100;-59
2022/01/11 04:49:20;;;;;;;30.80;11.05;;;;;;;6.09;76.85;100860.78;1806622;78;21151;-59
2022/01/11 04:51:49;;;;;;;22.80;10.13;;;;;;;6.11;76.87;100867.69;1838857;78;21536;-59
2022/01/11 04:54:17;;;;;;;21.35;9.88;;;;;;;6.11;76.87;100870.30;1836205;78;21113;-59
2022/01/11 04:56:47;;;;;;;25.57;10.68;;;;;;;6.11;76.82;100876.84;1807614;78;21603;-58
2022/01/11 04:59:16;;;;;;;23.50;10.95;;;;;;;6.10;76.76;100871.18;1802935;79;21085;-58
2022/01/11 05:01:45;;;;;;;24.63;11.40;;;;;;;6.07;76.74;100874.30;1802907;79;21551;-58
2022/01/11 05:04:14;;;;;;;22.75;10.00;;;;;;;6.02;76.77;100871.78;1802946;79;21136;-58
2022/01/11 05:06:43;;;;;;;25.55;10.23;;;;;;;5.99;76.80;100872.71;1802893;79;21113;-58
2022/01/11 05:09:12;;;;;;;22.73;10.60;;;;;;;5.97;77.04;100873.61;1802839;79;21557;-58
2022/01/11 05:11:42;;;;;;;14.40;7.72;;;;;;;5.91;77.41;100885.00;1802906;79;21156;-58
2022/01/11 05:14:11;;;;;;;23.83;9.88;;;;;;;5.90;77.31;100890.25;1771641;79;21069;-57
2022/01/11 05:16:41;;;;;;;17.50;9.03;;;;;;;5.87;77.30;100892.94;1802500;79;21100;-58
2022/01/11 05:19:12;;;;;;;16.57;9.03;;;;;;;5.86;77.18;100895.12;1802944;79;21238;-58
2022/01/11 05:21:43;;;;;;;21.05;10.18;;;;;;;5.85;77.26;100890.34;1802825;79;21151;-58
2022/01/11 05:24:12;;;;;;;24.47;10.20;;;;;;;5.86;77.08;100887.28;1803109;79;21053;-58
2022/01/11 05:26:41;;;;;;;18.90;10.45;;;;;;;5.88;77.02;100888.96;1803003;79;21061;-57
2022/01/11 05:29:09;;;;;;;22.80;11.18;;;;;;;5.96;77.06;100892.36;1803012;79;21037;-58
2022/01/11 05:31:39;;;;;;;23.05;11.68;;;;;;;6.11;76.99;100891.22;1802942;79;21089;-58
2022/01/11 05:34:08;;;;;;;20.17;11.00;;;;;;;6.31;76.88;100895.23;1802903;79;21547;-58
2022/01/11 05:36:37;;;;;;;23.38;10.78;;;;;;;6.48;76.75;100894.45;1803042;79;21523;-58
2022/01/11 05:39:05;;;;;;;26.07;11.30;;;;;;;6.62;76.44;100899.42;1802923;79;21167;-58
2022/01/11 05:41:34;;;;;;;23.42;10.18;;;;;;;6.66;76.13;100898.88;1793154;79;21599;-58
2022/01/11 05:44:03;;;;;;;21.48;10.88;;;;;;;6.65;76.02;100902.41;1791676;79;21500;-57
2022/01/11 05:46:32;;;;;;;25.90;11.88;;;;;;;6.59;75.93;100902.55;1818139;79;21070;-58
2022/01/11 05:49:01;;;;;;;32.13;12.35;;;;;;;6.49;75.92;100906.65;1818396;79;21473;-57
2022/01/11 05:51:30;;;;;;;22.70;10.08;;;;;;;6.41;75.99;100908.53;1818320;79;21089;-57
2022/01/11 05:56:50;;;;;;;21.70;9.70;;;;;;;6.24;76.20;100904.08;1822617;79;21134;-57
2022/01/11 05:59:19;;;;;;;23.92;9.48;;;;;;;6.09;76.46;100906.08;1791503;80;21105;-57
2022/01/11 06:01:48;;;;;;;19.02;8.63;;;;;;;6.04;76.70;100909.20;1791609;80;21023;-57
2022/01/11 06:04:17;;;;;;;23.42;10.48;;;;;;;6.10;76.62;100913.01;1791559;80;21026;-57
2022/01/11 06:06:47;;;;;;;20.05;9.45;;;;;;;6.17;76.53;100918.55;1791551;80;21083;-57
2022/01/11 06:09:16;;;;;;;19.17;9.20;;;;;;;6.25;76.40;100914.48;1791642;80;21034;-58
2022/01/11 06:11:45;;;;;;;21.12;10.20;;;;;;;6.32;76.29;100920.47;1791549;80;21027;-57
2022/01/11 06:14:14;;;;;;;17.75;9.18;;;;;;;6.38;76.24;100911.20;1791630;80;21109;-57
2022/01/11 06:16:43;;;;;;;20.77;9.75;;;;;;;6.44;76.15;100909.80;1791513;80;21057;-57
2022/01/11 06:19:12;;;;;;;19.35;9.98;;;;;;;6.50;76.14;100916.20;1791506;80;21129;-57
2022/01/11 06:21:43;;;;;;;21.62;9.50;;;;;;;6.56;76.11;100923.06;1789150;80;21141;-57
2022/01/11 06:24:12;;;;;;;19.95;10.68;;;;;;;6.62;76.07;100922.08;1791399;80;21066;-57
2022/01/11 06:26:42;;;;;;;19.42;9.85;;;;;;;6.71;75.94;100937.60;1791514;80;21032;-59
2022/01/11 06:29:12;;;;;;;22.95;11.22;;;;;;;6.75;75.73;100934.02;1791516;80;21180;-57
2022/01/11 06:31:41;;;;;;;24.20;11.75;;;;;;;6.82;75.58;100938.70;1791540;80;21128;-57
2022/01/11 06:34:10;;;;;;;24.40;12.30;;;;;;;6.91;75.43;100940.67;1791537;80;21568;-57
2022/01/11 06:36:39;;;;;;;24.57;12.28;;;;;;;7.01;75.28;100937.86;1791399;80;21477;-57
2022/01/11 06:39:09;;;;;;;27.85;12.55;;;;;;;7.12;75.08;100937.22;1791575;80;21160;-57
2022/01/11 06:41:38;;;;;;;23.40;10.60;;;;;;;7.27;74.93;100938.18;1791643;80;21512;-57
2022/01/11 06:44:10;;;;;;;25.30;11.05;;;;;;;7.46;74.69;100943.00;1791370;80;21074;-57
2022/01/11 06:46:40;;;;;;;23.50;11.33;;;;;;;7.66;74.50;100945.16;1791515;80;21038;-57
2022/01/11 06:49:09;;;;;;;26.80;9.83;;;;;;;8.24;73.92;100939.76;1791350;80;21063;-57
2022/01/11 06:51:39;;;;;;;22.48;10.35;;;;;;;8.53;73.32;100943.88;1791491;80;21141;-57
2022/01/11 06:54:08;;;;;;;28.23;13.28;;;;;;;8.90;72.52;100943.70;1791562;80;21031;-57
2022/01/11 06:56:37;;;;;;;31.90;14.07;;;;;;;9.47;71.74;100938.91;1791548;80;21082;-57
2022/01/11 06:59:08;;;;;;;26.55;13.40;;;;;;;10.72;70.59;100941.33;1791466;80;21070;-57
2022/01/11 07:01:38;;;;;;;25.62;11.97;;;;;;;12.10;69.06;100943.47;1791595;80;21518;-59
2022/01/11 07:04:08;;;;;;;17.80;9.80;;;;;;;12.97;67.60;100944.52;1791038;80;21073;-57
2022/01/11 07:06:45;;;;;;;19.27;9.85;;;;;;;13.67;66.47;100936.38;1821808;78;21113;-57
2022/01/11 07:09:13;;;;;;;22.10;10.10;;;;;;;14.49;65.24;100929.14;1791662;80;21177;-57
2022/01/11 07:11:44;;;;;;;13.93;7.85;;;;;;;15.04;63.17;100935.49;1791674;80;21636;-57
2022/01/11 07:14:12;;;;;;;21.17;9.60;;;;;;;15.80;62.03;100930.83;1791580;80;21694;-60
2022/01/11 07:16:48;;;;;;;19.23;9.13;;;;;;;16.57;60.92;100928.92;1822660;77;21164;-57
2022/01/11 07:19:16;;;;;;;20.65;9.23;;;;;;;16.80;59.65;100927.97;1791421;80;21127;-57
2022/01/11 07:21:45;;;;;;;17.92;8.53;;;;;;;16.38;59.41;100929.68;1791739;80;21138;-58
2022/01/11 07:24:17;;;;;;;15.98;9.70;;;;;;;15.85;59.59;100927.92;1791768;80;21517;-57
2022/01/11 07:26:47;;;;;;;16.00;9.78;;;;;;;16.12;58.66;100920.14;1822599;78;21552;-58
2022/01/11 07:29:16;;;;;;;23.57;10.60;;;;;;;16.06;58.88;100925.79;1791773;80;21082;-57
2022/01/11 07:31:46;;;;;;;18.45;9.18;;;;;;;15.79;59.14;100931.78;1791728;80;21125;-57
2022/01/11 07:34:16;;;;;;;16.87;10.23;;;;;;;15.16;60.12;100939.73;1822671;78;21135;-57
2022/01/11 07:36:45;;;;;;;18.82;10.35;;;;;;;14.55;60.74;100938.56;1791659;80;21034;-57
2022/01/11 07:39:15;;;;;;;18.05;10.10;;;;;;;14.06;61.43;100941.48;1791558;80;21505;-57
2022/01/11 07:41:44;;;;;;;16.27;9.70;;;;;;;13.73;61.88;100937.39;1791732;80;21043;-57
2022/01/11 07:44:15;;;;;;;19.45;10.23;;;;;;;13.41;62.38;100946.88;1775304;80;21152;-57
2022/01/11 07:46:45;;;;;;;17.67;9.38;;;;;;;13.17;62.49;100939.59;1791797;80;21137;-58
2022/01/11 07:49:15;;;;;;;17.57;9.35;;;;;;;12.96;63.00;100942.31;1822005;78;21088;-57
2022/01/11 07:51:44;;;;;;;15.63;8.40;;;;;;;12.86;63.23;100940.56;1791692;80;21189;-57
2022/01/11 07:54:13;;;;;;;15.83;7.62;;;;;;;12.82;63.48;100939.43;1791671;80;21610;-57
2022/01/11 07:56:42;;;;;;;13.75;7.50;;;;;;;12.82;63.38;100935.47;1790415;80;21142;-57
2022/01/11 07:59:11;;;;;;;15.80;8.50;;;;;;;13.03;62.90;100938.94;1788678;80;21043;-57
2022/01/11 08:01:41;;;;;;;15.10;7.92;;;;;;;13.23;62.65;100943.30;1799648;79;21064;-57
2022/01/11 08:04:10;;;;;;;14.38;7.95;;;;;;;13.57;62.11;100943.89;1793805;80;21101;-57
2022/01/11 08:06:40;;;;;;;17.17;8.43;;;;;;;13.58;61.83;100934.19;1822131;77;21080;-57
2022/01/11 08:09:27;;;;;;;15.50;7.58;;;;;;;13.90;61.34;100944.50;1822429;79;21131;-57
2022/01/11 08:11:58;;;;;;;16.12;8.20;;;;;;;13.97;61.16;100942.41;1822495;78;21499;-57
2022/01/11 08:14:29;;;;;;;15.10;9.03;;;;;;;13.80;61.18;100941.94;1822689;79;21041;-57
2022/01/11 08:16:58;;;;;;;19.10;9.40;;;;;;;13.57;61.48;100933.78;1822589;79;21827;-57
2022/01/11 08:19:27;;;;;;;19.48;8.83;;;;;;;13.36;61.89;100939.17;1822744;79;21598;-57
2022/01/11 08:21:58;;;;;;;19.02;10.00;;;;;;;13.35;61.85;100936.13;1822613;78;21515;-57
2022/01/11 08:24:28;;;;;;;18.92;9.53;;;;;;;13.32;61.71;100937.61;1821537;78;21510;-57
2022/01/11 08:26:57;;;;;;;14.28;7.67;;;;;;;13.37;61.32;100934.29;1822585;78;21484;-59
2022/01/11 08:29:26;;;;;;;20.10;9.78;;;;;;;13.43;60.91;100932.66;1822624;78;21104;-57
2022/01/11 08:31:56;;;;;;;19.75;9.85;;;;;;;14.26;59.56;100925.91;1822071;78;21158;-57
2022/01/11 08:34:25;;;;;;;18.42;9.68;;;;;;;14.86;58.39;100923.23;1822643;79;21159;-57
2022/01/11 08:36:55;;;;;;;20.55;10.32;;;;;;;15.34;57.73;100922.80;1822881;79;21053;-57
2022/01/11 08:39:25;;;;;;;19.32;9.25;;;;;;;15.40;57.34;100911.86;1822613;79;21036;-57
2022/01/11 08:41:54;;;;;;;19.50;9.28;;;;;;;15.47;57.23;100915.00;1822538;79;21092;-57
2022/01/11 08:44:24;;;;;;;18.12;9.18;;;;;;;15.81;56.62;100911.79;1822679;79;21088;-57
2022/01/11 08:46:54;;;;;;;26.17;10.65;;;;;;;16.66;55.52;100904.07;1822601;79;21073;-57
2022/01/11 08:49:25;;;;;;;17.95;9.43;;;;;;;18.09;53.60;100905.04;1822096;78;21073;-57
2022/01/11 08:51:54;;;;;;;17.20;9.20;;;;;;;19.00;51.85;100904.56;1822615;78;21069;-58
2022/01/11 08:54:24;;;;;;;15.50;8.15;;;;;;;19.98;50.32;100899.98;1822572;79;21112;-58
2022/01/11 08:56:55;;;;;;;17.20;9.83;;;;;;;20.66;49.12;100900.59;1823145;79;21153;-57
2022/01/11 08:59:25;;;;;;;16.62;9.55;;;;;;;21.27;48.23;100897.52;1825323;78;21060;-57
2022/01/11 09:02:01;;;;;;;14.30;8.95;;;;;;;21.56;47.35;100890.64;1825197;78;21069;-57
2022/01/11 09:04:31;;;;;;;16.60;9.10;;;;;;;21.99;45.83;100884.83;1824834;79;21076;-57
2022/01/11 09:07:07;;;;;;;16.05;8.90;;;;;;;22.46;44.55;100880.41;1817210;79;21044;-57
2022/01/11 09:09:36;;;;;;;19.52;9.50;;;;;;;22.74;43.51;100892.24;1825209;78;21017;-57
2022/01/11 09:12:08;;;;;;;19.10;9.40;;;;;;;22.71;42.94;100886.67;1825169;78;21123;-57
2022/01/11 09:14:39;;;;;;;15.28;9.58;;;;;;;22.88;42.76;100888.35;1825325;78;21148;-57
2022/01/11 09:17:08;;;;;;;14.87;7.85;;;;;;;23.02;42.03;100882.61;1825092;78;21049;-58
2022/01/11 09:19:37;;;;;;;12.82;7.42;;;;;;;23.03;41.75;100884.29;1825365;79;21017;-57
2022/01/11 09:22:07;;;;;;;14.98;8.28;;;;;;;23.24;41.34;100887.41;1825236;79;21066;-57
2022/01/11 09:24:37;;;;;;;14.65;8.13;;;;;;;23.09;40.70;100890.98;1825240;78;21111;-57
2022/01/11 09:27:06;;;;;;;12.82;7.62;;;;;;;23.00;40.21;100887.27;1825161;79;21488;-57
2022/01/11 09:29:37;;;;;;;13.32;8.25;;;;;;;23.12;39.96;100886.69;1825155;79;21164;-58
2022/01/11 09:32:08;;;;;;;15.32;8.45;;;;;;;23.30;39.62;100890.90;1825342;79;21569;-57
2022/01/11 09:34:39;;;;;;;14.07;8.35;;;;;;;23.45;39.26;100886.80;1825305;78;21421;-57
2022/01/11 09:37:10;;;;;;;16.70;8.00;;;;;;;23.51;39.31;100884.89;1825158;79;21045;-57
2022/01/11 09:39:42;;;;;;;16.10;7.67;;;;;;;23.77;38.96;100882.14;1825321;79;21472;-57
2022/01/11 09:42:10;;;;;;;17.07;8.25;;;;;;;23.58;38.99;100875.78;1825087;78;21081;-55
2022/01/11 09:44:59;;;;;;;13.05;8.05;;;;;;;23.65;38.80;100876.08;1825235;78;21457;-54
2022/01/11 09:47:29;;;;;;;17.17;8.43;;;;;;;23.82;38.67;100882.10;1794312;80;21140;-57
2022/01/11 09:49:59;;;;;;;14.53;8.40;;;;;;;23.89;38.43;100879.20;1794242;80;21057;-56
2022/01/11 09:52:29;;;;;;;12.90;8.25;;;;;;;23.88;38.30;100877.52;1794234;80;21093;-57
2022/01/11 09:54:59;;;;;;;15.80;8.58;;;;;;;23.81;38.47;100868.32;1794303;80;21554;-56
2022/01/11 09:57:29;;;;;;;16.17;7.33;;;;;;;24.04;38.11;100873.38;1794455;80;21583;-56
2022/01/11 10:00:00;;;;;;;12.90;8.00;;;;;;;24.12;37.83;100872.14;1791740;80;21118;-56
2022/01/11 10:02:38;;;;;;;15.28;8.08;;;;;;;24.01;37.94;100870.97;1777768;80;21077;-57
2022/01/11 10:05:11;;;;;;;13.98;8.08;;;;;;;24.09;37.74;100873.30;1793128;80;21160;-57
2022/01/11 10:07:43;;;;;;;15.03;8.23;;;;;;;24.16;37.42;100870.89;1792508;80;21077;-57
2022/01/11 10:10:14;;;;;;;14.80;8.03;;;;;;;24.17;37.49;100871.22;1794348;80;21125;-57
2022/01/11 10:12:50;;;;;;;15.32;8.73;;;;;;;24.42;37.18;100866.18;1794588;80;21078;-57
2022/01/11 10:15:29;;;;;;;13.60;8.00;;;;;;;24.26;37.11;100860.93;1794100;79;21079;-56
2022/01/11 10:17:58;;;;;;;15.80;8.95;;;;;;;24.31;37.06;100859.64;1794388;79;21108;-57
2022/01/11 10:20:29;;;;;;;13.98;7.47;;;;;;;24.40;36.68;100864.14;1794039;80;21086;-57
2022/01/11 10:23:02;;;;;;;18.32;8.75;;;;;;;24.42;36.47;100870.22;1792218;80;21097;-56
2022/01/11 10:25:35;;;;;;;16.87;8.83;;;;;;;24.20;36.63;100865.56;1794356;80;21148;-57
2022/01/11 10:28:05;;;;;;;13.62;8.20;;;;;;;23.93;36.84;100865.47;1793153;80;21070;-57
2022/01/11 10:30:37;;;;;;;15.55;9.03;;;;;;;23.88;36.88;100872.14;1794001;80;21097;-56
2022/01/11 10:33:10;;;;;;;16.48;8.35;;;;;;;24.04;36.60;100869.34;1794241;80;21508;-57
2022/01/11 10:35:44;;;;;;;15.78;8.95;;;;;;;23.98;36.45;100863.20;1794368;78;21231;-57
2022/01/11 10:38:32;;;;;;;16.45;9.25;;;;;;;24.02;36.42;100864.61;1794172;80;21078;-57
2022/01/11 10:41:03;;;;;;;14.03;8.28;;;;;;;23.85;36.47;100876.95;1794058;80;21097;-57
2022/01/11 10:43:35;;;;;;;15.55;8.90;;;;;;;23.66;36.65;100872.38;1794320;79;21109;-57
2022/01/11 10:46:04;;;;;;;16.77;9.28;;;;;;;23.42;36.95;100871.45;1792294;80;21082;-57
2022/01/11 10:48:35;;;;;;;15.83;8.65;;;;;;;23.46;36.98;100871.52;1789026;80;21117;-57
2022/01/11 10:51:04;;;;;;;15.85;8.90;;;;;;;23.37;36.99;100871.02;1788843;79;21166;-57
2022/01/11 10:53:38;;;;;;;16.67;9.58;;;;;;;23.39;36.94;100864.54;1788843;79;21094;-57
2022/01/11 10:56:09;;;;;;;15.05;8.45;;;;;;;23.09;36.94;100864.99;1752509;82;21076;-56
2022/01/11 10:58:39;;;;;;;16.07;7.62;;;;;;;22.96;37.33;100865.69;1776369;80;21103;-56
2022/01/11 11:01:13;;;;;;;14.83;7.87;;;;;;;22.85;37.44;100871.17;1776360;81;21636;-56
2022/01/11 11:03:44;;;;;;;14.53;7.87;;;;;;;22.35;38.28;100865.23;1776385;81;21146;-56
2022/01/11 11:06:13;;;;;;;16.48;8.75;;;;;;;21.61;39.69;100871.98;1776392;81;21100;-56
2022/01/11 11:08:48;;;;;;;16.52;8.90;;;;;;;21.63;39.99;100864.66;1775885;80;21095;-56
2022/01/11 11:11:27;;;;;;;17.40;8.53;;;;;;;22.02;39.06;100867.13;1775801;80;21098;-57
2022/01/11 11:14:16;;;;;;;22.48;9.80;;;;;;;22.27;38.43;100868.59;1776256;81;21083;-56
2022/01/11 11:16:52;;;;;;;19.00;9.43;;;;;;;22.34;38.34;100872.95;1774764;80;21550;-56
2022/01/11 11:19:23;;;;;;;16.05;8.55;;;;;;;22.30;38.42;100872.86;1776294;81;21577;-57
2022/01/11 11:21:54;;;;;;;15.78;8.68;;;;;;;22.03;38.81;100869.34;1775052;80;21086;-56
2022/01/11 11:24:24;;;;;;;16.10;8.43;;;;;;;22.08;38.71;100869.30;1776166;81;21518;-57
2022/01/11 11:26:53;;;;;;;17.05;8.60;;;;;;;22.00;38.88;100870.44;1776348;81;21134;-57
2022/01/11 11:29:24;;;;;;;17.50;9.23;;;;;;;21.87;39.17;100865.27;1776273;81;21256;-56
2022/01/11 11:31:56;;;;;;;14.65;8.13;;;;;;;21.75;39.31;100869.00;1776308;81;21205;-56
2022/01/11 11:34:25;;;;;;;15.75;9.15;;;;;;;21.66;39.50;100865.76;1776316;81;21104;-56
2022/01/11 11:36:54;;;;;;;21.40;8.93;;;;;;;21.44;39.90;100868.84;1776172;81;21186;-56